createdAt,value
2023-03-19T00:04:14.002Z,1006.04
2023-03-19T00:10:37.005Z,1006.12
2023-03-19T00:16:57.120Z,1006.14
2023-03-19T00:23:20.013Z,1006.16
2023-03-19T00:29:39.998Z,1006.16
2023-03-19T00:36:03.056Z,1006.12
2023-03-19T00:42:22.992Z,1006.08
2023-03-19T00:48:46.016Z,1006.08
2023-03-19T00:55:06.181Z,1006.1
2023-03-19T01:01:29.140Z,1006.08
2023-03-19T01:07:48.998Z,1006.06
2023-03-19T01:14:12.016Z,1006.02
2023-03-19T01:20:32.284Z,1006.02
2023-03-19T01:26:54.990Z,1006.04
2023-03-19T01:33:15.182Z,1006.14
2023-03-19T01:39:37.997Z,1006.14
2023-03-19T01:45:58.035Z,1006.16
2023-03-19T01:52:21.023Z,1006.14
2023-03-19T01:58:40.999Z,1006.1
2023-03-19T02:05:03.977Z,1006.12
2023-03-19T02:11:24.016Z,1006.1
2023-03-19T02:17:47.064Z,1006.14
2023-03-19T02:24:07.080Z,1006.16
2023-03-19T02:30:30.004Z,1006.18
2023-03-19T02:36:49.991Z,1006.14
2023-03-19T02:43:13.011Z,1006.12
2023-03-19T02:49:33.031Z,1006.14
2023-03-19T02:55:55.965Z,1006.14
2023-03-19T03:02:16.103Z,1006.16
2023-03-19T03:08:39.044Z,1006.14
2023-03-19T03:14:59.001Z,1006.14
2023-03-19T03:21:21.997Z,1006.14
2023-03-19T03:27:42.074Z,1006.16
2023-03-19T03:34:05.022Z,1006.23
2023-03-19T03:40:25.013Z,1006.27
2023-03-19T03:46:48.020Z,1006.23
2023-03-19T03:53:08.040Z,1006.25
2023-03-19T03:59:31.010Z,1006.29
2023-03-19T04:05:51.077Z,1006.35
2023-03-19T04:12:14.084Z,1006.41
2023-03-19T04:18:34.010Z,1006.43
2023-03-19T04:24:57.015Z,1006.47
2023-03-19T04:48:02.521Z,1006.66
2023-03-19T04:54:21.981Z,1006.66
2023-03-19T05:00:45.039Z,1006.7
2023-03-19T05:07:05.014Z,1006.74
2023-03-19T05:13:28.020Z,1006.72
2023-03-19T05:19:48.008Z,1006.76
2023-03-19T05:26:11.054Z,1006.76
2023-03-19T05:32:31.046Z,1006.78
2023-03-19T05:38:53.993Z,1006.86
2023-03-19T05:45:14.024Z,1006.9
2023-03-19T05:51:36.982Z,1006.94
2023-03-19T05:57:56.979Z,1007
2023-03-19T06:04:20.217Z,1007
2023-03-19T06:10:40.023Z,1007.02
2023-03-19T06:17:02.994Z,1007.06
2023-03-19T06:23:23.026Z,1007.13
2023-03-19T06:29:46.001Z,1007.19
2023-03-19T06:36:06.002Z,1007.27
2023-03-19T06:42:29.052Z,1007.31
2023-03-19T06:48:48.980Z,1007.33
2023-03-19T06:55:12.024Z,1007.41
2023-03-19T07:01:32.019Z,1007.51
2023-03-19T07:07:55.069Z,1007.52
2023-03-19T07:14:15.034Z,1007.64
2023-03-19T07:20:38.031Z,1007.72
2023-03-19T07:26:58.024Z,1007.76
2023-03-19T07:33:20.991Z,1007.76
2023-03-19T07:39:41.019Z,1007.84
2023-03-19T07:46:04.088Z,1007.88
2023-03-19T07:52:23.978Z,1007.86
2023-03-19T07:58:47.051Z,1007.86
2023-03-19T08:05:06.985Z,1007.84
2023-03-19T08:11:30.041Z,1007.86
2023-03-19T08:17:50.063Z,1007.86
2023-03-19T08:24:12.995Z,1007.86
2023-03-19T08:30:33.256Z,1007.88
2023-03-19T08:36:56.026Z,1007.88
2023-03-19T08:43:16.026Z,1007.94
2023-03-19T08:49:38.976Z,1007.98
2023-03-19T08:55:59.168Z,1008.08
2023-03-19T09:02:21.991Z,1008.14
2023-03-19T09:08:42.168Z,1008.2
2023-03-19T09:15:05.011Z,1008.2
2023-03-19T09:21:24.987Z,1008.24
2023-03-19T09:27:48.005Z,1008.3
2023-03-19T09:34:08.028Z,1008.37
2023-03-19T09:40:30.973Z,1008.37
2023-03-19T09:46:51.020Z,1008.43
2023-03-19T10:09:05.013Z,1008.63
2023-03-19T10:15:27.987Z,1008.67
2023-03-19T10:21:48.020Z,1008.69
2023-03-19T10:28:11.034Z,1008.71
2023-03-19T10:34:31.001Z,1008.69
2023-03-19T10:40:54.027Z,1008.73
2023-03-19T10:47:14.015Z,1008.73
2023-03-19T10:53:37.040Z,1008.75
2023-03-19T10:59:56.987Z,1008.75
2023-03-19T11:06:20.054Z,1008.81
2023-03-19T11:12:40.003Z,1008.77
2023-03-19T11:19:02.987Z,1008.75
2023-03-19T11:25:23.009Z,1008.81
2023-03-19T11:31:45.994Z,1008.81
2023-03-19T11:38:06.012Z,1008.75
2023-03-19T11:44:29.026Z,1008.71
2023-03-19T11:50:48.973Z,1008.71
2023-03-19T11:57:12.018Z,1008.69
2023-03-19T12:03:32.081Z,1008.63
2023-03-19T12:09:54.988Z,1008.59
2023-03-19T12:16:15.059Z,1008.55
2023-03-19T12:22:38.017Z,1008.57
2023-03-19T12:28:58.029Z,1008.49
2023-03-19T12:35:20.982Z,1008.45
2023-03-19T12:41:41.009Z,1008.43
2023-03-19T12:48:04.028Z,1008.41
2023-03-19T12:54:23.988Z,1008.43
2023-03-19T13:00:47.095Z,1008.43
2023-03-19T13:07:06.986Z,1008.41
2023-03-19T13:13:29.989Z,1008.43
2023-03-19T13:19:50.051Z,1008.41
2023-03-19T13:26:12.987Z,1008.37
2023-03-19T13:32:33.083Z,1008.37
2023-03-19T13:38:56.039Z,1008.36
2023-03-19T13:45:15.975Z,1008.36
2023-03-19T13:51:38.997Z,1008.36
2023-03-19T13:57:59.088Z,1008.34
2023-03-19T14:04:21.979Z,1008.37
2023-03-19T14:10:41.998Z,1008.39
2023-03-19T14:17:05.010Z,1008.41
2023-03-19T14:23:35.986Z,1008.43
2023-03-19T14:29:47.996Z,1008.41
2023-03-19T14:36:08.082Z,1008.34
2023-03-19T14:42:31.024Z,1008.22
2023-03-19T14:48:50.983Z,1008.24
2023-03-19T14:55:14.038Z,1008.22
2023-03-19T15:01:34.091Z,1008.24
2023-03-19T15:07:56.992Z,1008.3
2023-03-19T15:14:17.025Z,1008.3
2023-03-19T15:20:40.023Z,1008.28
2023-03-19T15:27:00.008Z,1008.3
2023-03-19T15:43:09.519Z,1008.36
2023-03-19T15:49:28.985Z,1008.41
2023-03-19T15:55:51.993Z,1008.43
2023-03-19T16:02:12.010Z,1008.49
2023-03-19T16:08:34.980Z,1008.53
2023-03-19T16:14:54.998Z,1008.57
2023-03-19T16:21:18.017Z,1008.61
2023-03-19T16:27:38.005Z,1008.71
2023-03-19T16:34:01.012Z,1008.79
2023-03-19T16:40:21.028Z,1008.86
2023-03-19T16:46:44.048Z,1009
2023-03-19T16:53:03.980Z,1009.16
2023-03-19T16:59:27.031Z,1009.33
2023-03-19T17:05:47.028Z,1009.47
2023-03-19T17:12:09.982Z,1009.57
2023-03-19T17:18:30.024Z,1009.63
2023-03-19T17:24:53.013Z,1009.71
2023-03-19T17:31:13.018Z,1009.77
2023-03-19T17:37:36.032Z,1009.78
2023-03-19T17:43:56.007Z,1009.9
2023-03-19T17:50:19.070Z,1009.96
2023-03-19T17:56:39.019Z,1010.02
2023-03-19T18:03:01.994Z,1010.06
2023-03-19T18:09:22.044Z,1010.14
2023-03-19T18:15:45.046Z,1010.22
2023-03-19T18:22:05.007Z,1010.27
2023-03-19T18:28:28.002Z,1010.33
2023-03-19T18:34:48.026Z,1010.33
2023-03-19T18:41:11.006Z,1010.33
2023-03-19T18:47:31.019Z,1010.41
2023-03-19T18:53:54.155Z,1010.47
2023-03-19T19:00:13.991Z,1010.55
2023-03-19T19:06:47.121Z,1010.73
2023-03-19T19:12:57.056Z,1010.85
2023-03-19T19:19:20.182Z,1010.95
2023-03-19T19:25:40.001Z,1011.01
2023-03-19T19:32:03.011Z,1011.05
2023-03-19T19:38:22.998Z,1011.07
2023-03-19T19:44:46.002Z,1011.14
2023-03-19T19:51:06.025Z,1011.22
2023-03-19T19:57:29.021Z,1011.32
2023-03-19T20:03:49.080Z,1011.42
2023-03-19T20:10:12.065Z,1011.49
2023-03-19T20:16:32.003Z,1011.55
2023-03-19T20:22:54.985Z,1011.67
2023-03-19T20:29:15.032Z,1011.75
2023-03-19T20:35:38.521Z,1011.83
2023-03-19T20:41:57.968Z,1011.87
2023-03-19T20:48:21.019Z,1011.95
2023-03-19T21:12:04.017Z,1012.1
2023-03-19T21:18:24.004Z,1012.12
2023-03-19T21:24:46.995Z,1012.18
2023-03-19T21:31:07.027Z,1012.22
2023-03-19T21:37:29.996Z,1012.24
2023-03-19T21:43:49.976Z,1012.28
2023-03-19T21:50:13.031Z,1012.32
2023-03-19T21:56:33.002Z,1012.32
2023-03-19T22:02:55.983Z,1012.36
2023-03-19T22:09:16.017Z,1012.38
2023-03-19T22:15:38.991Z,1012.4
2023-03-19T22:21:58.982Z,1012.42
2023-03-19T22:28:22.018Z,1012.43
2023-03-19T22:34:41.980Z,1012.47
2023-03-19T22:41:04.998Z,1012.53
2023-03-19T22:47:25.035Z,1012.63
2023-03-19T22:53:48.007Z,1012.63
2023-03-19T23:00:07.999Z,1012.71
2023-03-19T23:23:06.009Z,1012.85
2023-03-19T23:29:25.988Z,1012.89
2023-03-19T23:35:49.044Z,1012.9
2023-03-19T23:42:09.049Z,1012.98
2023-03-19T23:48:31.980Z,1013.08
2023-03-19T23:54:51.985Z,1013.1
